Terminal Aerodrome Forecast
Issued by NWS North Platte, NE

Home | Current Version | Previous Version | Text Only | Print | Product List | Glossary On
Versions: 1 2 3 4 5 6 7 8 9 10 11 12 13 14 15 16 17 18 19 20 21 22 23 24 25 26 27 28 29 30 31 32 33 34 35 36 37 38 39 40 41 42 43 44 45 46 47 48
846
FTUS43 KLBF 171815 AAW
TAFVTN
TAF AMD
KVTN 171815Z 1718/1818 11011KT P6SM FEW022 OVC029
     FM172200 12014KT P6SM BKN035
     FM180500 14007KT 6SM BR BKN016
     FM180800 15007KT 2SM BR BKN004
     FM181600 16013KT P6SM BKN008=

USA.gov is the U.S. government's official web portal to all federal, state and local government web resources and services.